Terminal Aerodrome Forecast
Issued by NWS

Home | Current Version | Previous Version | Text Only | Print | Product List | Glossary On
Versions: 1 2 3 4 5 6 7 8 9 10 11 12
000
FTUS45 KPSR 161100
TAFBLH
TAF
KBLH 161122Z 1612/1712 18010G15KT P6SM FEW025 SCT100
     FM161700 18010KT P6SM SCT035 SCT120
     FM170000 16007KT P6SM VCSH BKN070 OVC120=

USA.gov is the U.S. government's official web portal to all federal, state and local government web resources and services.